sensor_id;sensor_type;location;lat;lon;timestamp;pressure;altitude;pressure_sealevel;temperature;humidity
76205;BME280;64986;55.672;37.628;2023-06-19T00:00:44;99710.81;;;16.26;nan
76205;BME280;64986;55.672;37.628;2023-06-19T00:03:10;99703.06;;;16.24;nan
76205;BME280;64986;55.672;37.628;2023-06-19T00:05:35;99700.47;;;16.13;nan
76205;BME280;64986;55.672;37.628;2023-06-19T00:08:01;99706.59;;;16.01;nan
76205;BME280;64986;55.672;37.628;2023-06-19T00:10:28;99704.53;;;15.92;nan
76205;BME280;64986;55.672;37.628;2023-06-19T00:12:54;99707.00;;;15.81;nan
76205;BME280;64986;55.672;37.628;2023-06-19T00:15:19;99705.28;;;15.75;nan
76205;BME280;64986;55.672;37.628;2023-06-19T00:17:45;99706.66;;;15.78;nan
76205;BME280;64986;55.672;37.628;2023-06-19T00:20:10;99702.75;;;15.80;nan
76205;BME280;64986;55.672;37.628;2023-06-19T00:22:36;99696.06;;;15.66;nan
76205;BME280;64986;55.672;37.628;2023-06-19T00:25:01;99705.06;;;15.65;nan
76205;BME280;64986;55.672;37.628;2023-06-19T00:27:27;99700.28;;;15.55;nan
76205;BME280;64986;55.672;37.628;2023-06-19T00:29:52;99706.06;;;15.52;nan
76205;BME280;64986;55.672;37.628;2023-06-19T00:32:18;99703.75;;;15.56;nan
76205;BME280;64986;55.672;37.628;2023-06-19T00:34:43;99706.06;;;15.52;nan
76205;BME280;64986;55.672;37.628;2023-06-19T00:37:09;99701.78;;;15.40;nan
76205;BME280;64986;55.672;37.628;2023-06-19T00:39:39;99712.31;;;15.35;nan
76205;BME280;64986;55.672;37.628;2023-06-19T00:42:05;99715.16;;;15.33;nan
76205;BME280;64986;55.672;37.628;2023-06-19T00:44:30;99715.53;;;15.37;nan
76205;BME280;64986;55.672;37.628;2023-06-19T00:47:01;99716.66;;;15.41;nan
76205;BME280;64986;55.672;37.628;2023-06-19T00:49:28;99714.16;;;15.34;nan
76205;BME280;64986;55.672;37.628;2023-06-19T00:51:54;99722.41;;;15.26;nan
76205;BME280;64986;55.672;37.628;2023-06-19T00:54:20;99710.91;;;15.20;nan
76205;BME280;64986;55.672;37.628;2023-06-19T00:56:46;99712.97;;;15.30;nan
76205;BME280;64986;55.672;37.628;2023-06-19T00:59:15;99717.38;;;15.36;nan
76205;BME280;64986;55.672;37.628;2023-06-19T01:01:42;99711.00;;;15.25;nan
76205;BME280;64986;55.672;37.628;2023-06-19T01:04:08;99713.31;;;15.22;nan
76205;BME280;64986;55.672;37.628;2023-06-19T01:06:50;99722.22;;;15.27;nan
76205;BME280;64986;55.672;37.628;2023-06-19T01:09:19;99717.03;;;15.21;nan
76205;BME280;64986;55.672;37.628;2023-06-19T01:11:57;99719.91;;;15.31;nan
76205;BME280;64986;55.672;37.628;2023-06-19T01:14:27;99727.41;;;15.22;nan
76205;BME280;64986;55.672;37.628;2023-06-19T01:16:53;99724.59;;;15.17;nan
76205;BME280;64986;55.672;37.628;2023-06-19T01:19:20;99726.22;;;15.18;nan
76205;BME280;64986;55.672;37.628;2023-06-19T01:21:47;99714.81;;;15.18;nan
76205;BME280;64986;55.672;37.628;2023-06-19T01:24:13;99720.72;;;15.20;nan
76205;BME280;64986;55.672;37.628;2023-06-19T01:26:39;99717.25;;;15.19;nan
76205;BME280;64986;55.672;37.628;2023-06-19T01:29:05;99718.25;;;15.18;nan
76205;BME280;64986;55.672;37.628;2023-06-19T01:31:34;99722.31;;;15.33;nan
76205;BME280;64986;55.672;37.628;2023-06-19T01:34:03;99725.56;;;15.35;nan
76205;BME280;64986;55.672;37.628;2023-06-19T01:36:30;99724.41;;;15.31;nan
76205;BME280;64986;55.672;37.628;2023-06-19T01:38:57;99728.09;;;15.30;nan
76205;BME280;64986;55.672;37.628;2023-06-19T01:41:24;99728.66;;;15.32;nan
76205;BME280;64986;55.672;37.628;2023-06-19T01:43:50;99728.00;;;15.36;nan
76205;BME280;64986;55.672;37.628;2023-06-19T01:46:16;99722.44;;;15.38;nan
76205;BME280;64986;55.672;37.628;2023-06-19T01:48:42;99725.91;;;15.38;nan
76205;BME280;64986;55.672;37.628;2023-06-19T01:51:07;99727.28;;;15.41;nan
76205;BME280;64986;55.672;37.628;2023-06-19T01:53:33;99725.78;;;15.57;nan
76205;BME280;64986;55.672;37.628;2023-06-19T01:56:00;99724.69;;;15.64;nan
76205;BME280;64986;55.672;37.628;2023-06-19T01:58:26;99723.03;;;15.63;nan
76205;BME280;64986;55.672;37.628;2023-06-19T02:00:51;99728.16;;;15.65;nan
76205;BME280;64986;55.672;37.628;2023-06-19T02:03:17;99720.50;;;15.68;nan
76205;BME280;64986;55.672;37.628;2023-06-19T02:05:42;99725.69;;;15.75;nan
76205;BME280;64986;55.672;37.628;2023-06-19T02:08:08;99712.75;;;15.78;nan
76205;BME280;64986;55.672;37.628;2023-06-19T02:10:34;99722.94;;;15.81;nan
76205;BME280;64986;55.672;37.628;2023-06-19T02:12:59;99721.41;;;15.86;nan
76205;BME280;64986;55.672;37.628;2023-06-19T02:15:25;99724.19;;;15.91;nan
76205;BME280;64986;55.672;37.628;2023-06-19T02:17:51;99721.41;;;15.97;nan
76205;BME280;64986;55.672;37.628;2023-06-19T02:20:21;99724.84;;;15.98;nan
76205;BME280;64986;55.672;37.628;2023-06-19T02:22:46;99720.34;;;15.98;nan
76205;BME280;64986;55.672;37.628;2023-06-19T02:25:12;99721.16;;;15.99;nan
76205;BME280;64986;55.672;37.628;2023-06-19T02:27:37;99718.25;;;16.00;nan
76205;BME280;64986;55.672;37.628;2023-06-19T02:30:04;99721.84;;;16.06;nan
76205;BME280;64986;55.672;37.628;2023-06-19T02:32:30;99719.50;;;16.09;nan
76205;BME280;64986;55.672;37.628;2023-06-19T02:34:55;99716.28;;;16.07;nan
76205;BME280;64986;55.672;37.628;2023-06-19T02:37:21;99715.03;;;16.10;nan
76205;BME280;64986;55.672;37.628;2023-06-19T02:39:46;99720.41;;;16.15;nan
76205;BME280;64986;55.672;37.628;2023-06-19T02:42:12;99717.88;;;16.20;nan
76205;BME280;64986;55.672;37.628;2023-06-19T02:44:37;99720.84;;;16.24;nan
76205;BME280;64986;55.672;37.628;2023-06-19T02:47:03;99721.91;;;16.23;nan
76205;BME280;64986;55.672;37.628;2023-06-19T02:49:29;99723.06;;;16.27;nan
76205;BME280;64986;55.672;37.628;2023-06-19T02:51:55;99716.81;;;16.33;nan
76205;BME280;64986;55.672;37.628;2023-06-19T02:54:21;99719.53;;;16.38;nan
76205;BME280;64986;55.672;37.628;2023-06-19T02:56:46;99716.88;;;16.38;nan
76205;BME280;64986;55.672;37.628;2023-06-19T02:59:12;99715.50;;;16.35;nan
76205;BME280;64986;55.672;37.628;2023-06-19T03:01:37;99711.81;;;16.36;nan
76205;BME280;64986;55.672;37.628;2023-06-19T03:04:03;99711.31;;;16.40;nan
76205;BME280;64986;55.672;37.628;2023-06-19T03:06:28;99710.97;;;16.48;nan
76205;BME280;64986;55.672;37.628;2023-06-19T03:08:54;99709.19;;;16.53;nan
76205;BME280;64986;55.672;37.628;2023-06-19T03:11:19;99712.19;;;16.57;nan
76205;BME280;64986;55.672;37.628;2023-06-19T03:13:51;99711.56;;;16.67;nan
76205;BME280;64986;55.672;37.628;2023-06-19T03:16:18;99705.34;;;16.61;nan
76205;BME280;64986;55.672;37.628;2023-06-19T03:18:44;99709.63;;;16.62;nan
76205;BME280;64986;55.672;37.628;2023-06-19T03:21:14;99708.00;;;16.73;nan
76205;BME280;64986;55.672;37.628;2023-06-19T03:23:39;99702.31;;;16.69;nan
76205;BME280;64986;55.672;37.628;2023-06-19T03:26:09;99711.56;;;16.67;nan
76205;BME280;64986;55.672;37.628;2023-06-19T03:28:36;99710.19;;;16.64;nan
76205;BME280;64986;55.672;37.628;2023-06-19T03:31:01;99712.88;;;16.64;nan
76205;BME280;64986;55.672;37.628;2023-06-19T03:33:27;99712.28;;;16.62;nan
76205;BME280;64986;55.672;37.628;2023-06-19T03:35:52;99714.78;;;16.69;nan
76205;BME280;64986;55.672;37.628;2023-06-19T03:38:18;99707.19;;;16.72;nan
76205;BME280;64986;55.672;37.628;2023-06-19T03:40:43;99712.56;;;16.77;nan
76205;BME280;64986;55.672;37.628;2023-06-19T03:43:09;99722.50;;;16.82;nan
76205;BME280;64986;55.672;37.628;2023-06-19T03:45:36;99718.09;;;16.87;nan
76205;BME280;64986;55.672;37.628;2023-06-19T03:48:01;99712.91;;;16.81;nan
76205;BME280;64986;55.672;37.628;2023-06-19T03:50:27;99723.56;;;16.81;nan
76205;BME280;64986;55.672;37.628;2023-06-19T03:52:53;99720.19;;;16.85;nan
76205;BME280;64986;55.672;37.628;2023-06-19T03:55:18;99723.00;;;16.96;nan
76205;BME280;64986;55.672;37.628;2023-06-19T03:57:43;99705.91;;;16.91;nan
76205;BME280;64986;55.672;37.628;2023-06-19T04:00:09;99714.53;;;16.99;nan
76205;BME280;64986;55.672;37.628;2023-06-19T04:02:38;99725.13;;;17.10;nan
76205;BME280;64986;55.672;37.628;2023-06-19T04:05:05;99715.38;;;17.16;nan
76205;BME280;64986;55.672;37.628;2023-06-19T04:07:31;99719.94;;;17.20;nan
76205;BME280;64986;55.672;37.628;2023-06-19T04:09:57;99717.13;;;17.27;nan
76205;BME280;64986;55.672;37.628;2023-06-19T04:12:23;99723.00;;;17.29;nan
76205;BME280;64986;55.672;37.628;2023-06-19T04:14:49;99725.75;;;17.34;nan
76205;BME280;64986;55.672;37.628;2023-06-19T04:17:14;99725.72;;;17.51;nan
76205;BME280;64986;55.672;37.628;2023-06-19T04:19:41;99727.25;;;17.64;nan
76205;BME280;64986;55.672;37.628;2023-06-19T04:22:06;99716.47;;;17.70;nan
76205;BME280;64986;55.672;37.628;2023-06-19T04:24:32;99720.31;;;17.80;nan
76205;BME280;64986;55.672;37.628;2023-06-19T04:26:57;99713.13;;;17.80;nan
76205;BME280;64986;55.672;37.628;2023-06-19T04:29:23;99721.19;;;17.85;nan
76205;BME280;64986;55.672;37.628;2023-06-19T04:31:48;99715.34;;;17.88;nan
76205;BME280;64986;55.672;37.628;2023-06-19T04:34:16;99719.16;;;17.92;nan
76205;BME280;64986;55.672;37.628;2023-06-19T04:36:42;99710.66;;;17.95;nan
76205;BME280;64986;55.672;37.628;2023-06-19T04:39:08;99722.19;;;18.01;nan
76205;BME280;64986;55.672;37.628;2023-06-19T04:41:34;99718.84;;;18.11;nan
76205;BME280;64986;55.672;37.628;2023-06-19T04:44:04;99721.56;;;18.16;nan
76205;BME280;64986;55.672;37.628;2023-06-19T04:46:30;99715.47;;;18.20;nan
76205;BME280;64986;55.672;37.628;2023-06-19T04:48:55;99713.69;;;18.26;nan
76205;BME280;64986;55.672;37.628;2023-06-19T04:51:21;99709.69;;;18.28;nan
76205;BME280;64986;55.672;37.628;2023-06-19T04:53:47;99707.63;;;18.30;nan
76205;BME280;64986;55.672;37.628;2023-06-19T04:56:14;99718.28;;;18.30;nan
76205;BME280;64986;55.672;37.628;2023-06-19T04:58:40;99718.31;;;18.36;nan
76205;BME280;64986;55.672;37.628;2023-06-19T05:01:13;99723.44;;;18.42;nan
76205;BME280;64986;55.672;37.628;2023-06-19T05:03:43;99717.94;;;18.49;nan
76205;BME280;64986;55.672;37.628;2023-06-19T05:06:09;99706.72;;;18.47;nan
76205;BME280;64986;55.672;37.628;2023-06-19T05:08:35;99714.63;;;18.64;nan
76205;BME280;64986;55.672;37.628;2023-06-19T05:11:00;99715.00;;;18.72;nan
76205;BME280;64986;55.672;37.628;2023-06-19T05:13:26;99709.97;;;18.76;nan
76205;BME280;64986;55.672;37.628;2023-06-19T05:15:51;99717.78;;;18.88;nan
76205;BME280;64986;55.672;37.628;2023-06-19T05:18:17;99718.06;;;18.86;nan
76205;BME280;64986;55.672;37.628;2023-06-19T05:20:43;99716.19;;;18.87;nan
76205;BME280;64986;55.672;37.628;2023-06-19T05:23:08;99708.53;;;18.95;nan
76205;BME280;64986;55.672;37.628;2023-06-19T05:25:34;99720.94;;;19.11;nan
76205;BME280;64986;55.672;37.628;2023-06-19T05:27:59;99707.91;;;19.15;nan
76205;BME280;64986;55.672;37.628;2023-06-19T05:30:25;99716.50;;;19.22;nan
76205;BME280;64986;55.672;37.628;2023-06-19T05:32:50;99709.81;;;19.25;nan
76205;BME280;64986;55.672;37.628;2023-06-19T05:35:16;99709.88;;;19.30;nan
76205;BME280;64986;55.672;37.628;2023-06-19T05:37:42;99709.44;;;19.43;nan
76205;BME280;64986;55.672;37.628;2023-06-19T05:40:09;99710.03;;;19.50;nan
76205;BME280;64986;55.672;37.628;2023-06-19T05:42:38;99707.56;;;19.49;nan
76205;BME280;64986;55.672;37.628;2023-06-19T05:45:04;99702.75;;;19.46;nan
76205;BME280;64986;55.672;37.628;2023-06-19T05:47:30;99710.56;;;19.52;nan
76205;BME280;64986;55.672;37.628;2023-06-19T05:49:56;99710.38;;;19.59;nan
76205;BME280;64986;55.672;37.628;2023-06-19T05:52:22;99709.03;;;19.61;nan
76205;BME280;64986;55.672;37.628;2023-06-19T05:54:48;99703.72;;;19.66;nan
76205;BME280;64986;55.672;37.628;2023-06-19T05:57:13;99707.50;;;19.76;nan
76205;BME280;64986;55.672;37.628;2023-06-19T05:59:41;99702.19;;;19.81;nan
76205;BME280;64986;55.672;37.628;2023-06-19T06:02:07;99704.59;;;19.82;nan
76205;BME280;64986;55.672;37.628;2023-06-19T06:04:33;99699.00;;;19.84;nan
76205;BME280;64986;55.672;37.628;2023-06-19T06:06:59;99696.59;;;19.87;nan
76205;BME280;64986;55.672;37.628;2023-06-19T06:09:25;99707.84;;;19.89;nan
76205;BME280;64986;55.672;37.628;2023-06-19T06:11:52;99710.75;;;19.83;nan
76205;BME280;64986;55.672;37.628;2023-06-19T06:14:17;99710.78;;;19.88;nan
76205;BME280;64986;55.672;37.628;2023-06-19T06:16:43;99705.19;;;19.89;nan
76205;BME280;64986;55.672;37.628;2023-06-19T06:19:09;99695.78;;;19.82;nan
76205;BME280;64986;55.672;37.628;2023-06-19T06:21:34;99701.69;;;19.94;nan
76205;BME280;64986;55.672;37.628;2023-06-19T06:24:00;99702.28;;;20.01;nan
76205;BME280;64986;55.672;37.628;2023-06-19T06:26:25;99703.94;;;20.12;nan
76205;BME280;64986;55.672;37.628;2023-06-19T06:28:53;99705.00;;;20.11;nan
76205;BME280;64986;55.672;37.628;2023-06-19T06:31:18;99707.16;;;20.19;nan
76205;BME280;64986;55.672;37.628;2023-06-19T06:33:44;99697.28;;;20.20;nan
76205;BME280;64986;55.672;37.628;2023-06-19T06:36:09;99704.72;;;20.13;nan
76205;BME280;64986;55.672;37.628;2023-06-19T06:38:35;99700.19;;;20.13;nan
76205;BME280;64986;55.672;37.628;2023-06-19T06:41:01;99699.41;;;20.18;nan
76205;BME280;64986;55.672;37.628;2023-06-19T06:43:26;99698.63;;;20.28;nan
76205;BME280;64986;55.672;37.628;2023-06-19T06:45:52;99694.91;;;20.34;nan
76205;BME280;64986;55.672;37.628;2023-06-19T06:48:18;99693.81;;;20.19;nan
76205;BME280;64986;55.672;37.628;2023-06-19T06:50:43;99684.19;;;20.18;nan
76205;BME280;64986;55.672;37.628;2023-06-19T06:53:09;99688.47;;;20.30;nan
76205;BME280;64986;55.672;37.628;2023-06-19T06:55:34;99685.53;;;20.31;nan
76205;BME280;64986;55.672;37.628;2023-06-19T06:58:00;99690.09;;;20.36;nan
76205;BME280;64986;55.672;37.628;2023-06-19T07:00:25;99682.38;;;20.44;nan
76205;BME280;64986;55.672;37.628;2023-06-19T07:02:51;99683.19;;;20.55;nan
76205;BME280;64986;55.672;37.628;2023-06-19T07:05:17;99684.00;;;20.61;nan
76205;BME280;64986;55.672;37.628;2023-06-19T07:07:42;99680.53;;;20.70;nan
76205;BME280;64986;55.672;37.628;2023-06-19T07:10:08;99679.50;;;20.82;nan
76205;BME280;64986;55.672;37.628;2023-06-19T07:12:34;99679.50;;;20.87;nan
76205;BME280;64986;55.672;37.628;2023-06-19T07:15:00;99667.72;;;20.72;nan
76205;BME280;64986;55.672;37.628;2023-06-19T07:17:25;99666.63;;;20.68;nan
76205;BME280;64986;55.672;37.628;2023-06-19T07:19:51;99666.28;;;20.29;nan
76205;BME280;64986;55.672;37.628;2023-06-19T07:22:16;99667.84;;;20.15;nan
76205;BME280;64986;55.672;37.628;2023-06-19T07:24:42;99661.69;;;20.09;nan
76205;BME280;64986;55.672;37.628;2023-06-19T07:27:07;99663.06;;;20.27;nan
76205;BME280;64986;55.672;37.628;2023-06-19T07:29:33;99655.88;;;20.43;nan
76205;BME280;64986;55.672;37.628;2023-06-19T07:31:58;99660.22;;;20.49;nan
76205;BME280;64986;55.672;37.628;2023-06-19T07:34:26;99666.38;;;20.65;nan
76205;BME280;64986;55.672;37.628;2023-06-19T07:36:51;99668.25;;;20.74;nan
76205;BME280;64986;55.672;37.628;2023-06-19T07:39:17;99666.13;;;20.71;nan
76205;BME280;64986;55.672;37.628;2023-06-19T07:41:42;99659.41;;;20.48;nan
76205;BME280;64986;55.672;37.628;2023-06-19T07:44:08;99650.31;;;20.60;nan
76205;BME280;64986;55.672;37.628;2023-06-19T07:46:33;99661.28;;;20.73;nan
76205;BME280;64986;55.672;37.628;2023-06-19T07:48:59;99653.25;;;20.84;nan
76205;BME280;64986;55.672;37.628;2023-06-19T07:51:24;99662.91;;;20.90;nan
76205;BME280;64986;55.672;37.628;2023-06-19T07:53:50;99664.50;;;21.06;nan
76205;BME280;64986;55.672;37.628;2023-06-19T07:56:15;99655.38;;;21.12;nan
76205;BME280;64986;55.672;37.628;2023-06-19T07:58:41;99658.31;;;21.00;nan
76205;BME280;64986;55.672;37.628;2023-06-19T08:01:06;99665.31;;;20.86;nan
76205;BME280;64986;55.672;37.628;2023-06-19T08:03:32;99659.41;;;20.84;nan
76205;BME280;64986;55.672;37.628;2023-06-19T08:05:57;99662.66;;;20.86;nan
76205;BME280;64986;55.672;37.628;2023-06-19T08:08:23;99660.50;;;20.88;nan
76205;BME280;64986;55.672;37.628;2023-06-19T08:10:48;99650.06;;;20.87;nan
76205;BME280;64986;55.672;37.628;2023-06-19T08:13:14;99650.06;;;20.87;nan
76205;BME280;64986;55.672;37.628;2023-06-19T08:15:39;99651.66;;;20.98;nan
76205;BME280;64986;55.672;37.628;2023-06-19T08:18:05;99645.22;;;21.09;nan
76205;BME280;64986;55.672;37.628;2023-06-19T08:20:30;99652.16;;;21.25;nan
76205;BME280;64986;55.672;37.628;2023-06-19T08:22:56;99649.22;;;21.37;nan
76205;BME280;64986;55.672;37.628;2023-06-19T08:25:22;99653.75;;;21.42;nan
76205;BME280;64986;55.672;37.628;2023-06-19T08:27:47;99651.59;;;21.54;nan
76205;BME280;64986;55.672;37.628;2023-06-19T08:30:13;99657.97;;;21.63;nan
76205;BME280;64986;55.672;37.628;2023-06-19T08:32:39;99643.78;;;21.63;nan
76205;BME280;64986;55.672;37.628;2023-06-19T08:35:04;99647.50;;;21.67;nan
76205;BME280;64986;55.672;37.628;2023-06-19T08:37:30;99648.88;;;21.64;nan
76205;BME280;64986;55.672;37.628;2023-06-19T08:39:55;99658.22;;;21.72;nan
76205;BME280;64986;55.672;37.628;2023-06-19T08:42:22;99645.22;;;21.29;nan
76205;BME280;64986;55.672;37.628;2023-06-19T08:44:48;99641.19;;;21.22;nan
76205;BME280;64986;55.672;37.628;2023-06-19T08:47:14;99643.59;;;21.39;nan
76205;BME280;64986;55.672;37.628;2023-06-19T08:49:40;99641.91;;;21.63;nan
76205;BME280;64986;55.672;37.628;2023-06-19T08:52:06;99639.25;;;21.53;nan
76205;BME280;64986;55.672;37.628;2023-06-19T08:54:32;99631.81;;;21.35;nan
76205;BME280;64986;55.672;37.628;2023-06-19T08:57:01;99639.25;;;21.58;nan
76205;BME280;64986;55.672;37.628;2023-06-19T08:59:27;99637.81;;;21.81;nan
76205;BME280;64986;55.672;37.628;2023-06-19T09:01:55;99628.31;;;22.04;nan
76205;BME280;64986;55.672;37.628;2023-06-19T09:04:23;99622.41;;;22.12;nan
76205;BME280;64986;55.672;37.628;2023-06-19T09:06:54;99640.88;;;22.19;nan
76205;BME280;64986;55.672;37.628;2023-06-19T09:09:21;99640.63;;;22.15;nan
76205;BME280;64986;55.672;37.628;2023-06-19T09:12:07;99638.94;;;22.29;nan
76205;BME280;64986;55.672;37.628;2023-06-19T09:14:41;99627.47;;;22.19;nan
76205;BME280;64986;55.672;37.628;2023-06-19T09:17:10;99625.63;;;22.04;nan
76205;BME280;64986;55.672;37.628;2023-06-19T09:19:36;99617.38;;;21.95;nan
76205;BME280;64986;55.672;37.628;2023-06-19T09:22:03;99620.06;;;21.90;nan
76205;BME280;64986;55.672;37.628;2023-06-19T09:24:37;99627.94;;;22.26;nan
76205;BME280;64986;55.672;37.628;2023-06-19T09:27:13;99604.66;;;22.55;nan
76205;BME280;64986;55.672;37.628;2023-06-19T09:29:41;99605.19;;;22.91;nan
76205;BME280;64986;55.672;37.628;2023-06-19T09:32:22;99604.88;;;23.22;nan
76205;BME280;64986;55.672;37.628;2023-06-19T09:34:49;99611.44;;;23.35;nan
76205;BME280;64986;55.672;37.628;2023-06-19T09:37:22;99604.13;;;24.07;nan
76205;BME280;64986;55.672;37.628;2023-06-19T09:39:52;99618.38;;;25.65;nan
76205;BME280;64986;55.672;37.628;2023-06-19T09:42:24;99607.75;;;27.00;nan
76205;BME280;64986;55.672;37.628;2023-06-19T09:44:52;99617.31;;;28.03;nan
76205;BME280;64986;55.672;37.628;2023-06-19T09:47:25;99603.78;;;28.20;nan
76205;BME280;64986;55.672;37.628;2023-06-19T09:49:55;99606.53;;;29.10;nan
76205;BME280;64986;55.672;37.628;2023-06-19T09:52:21;99605.88;;;29.51;nan
76205;BME280;64986;55.672;37.628;2023-06-19T09:54:49;99604.88;;;30.06;nan
76205;BME280;64986;55.672;37.628;2023-06-19T09:57:15;99595.69;;;30.53;nan
76205;BME280;64986;55.672;37.628;2023-06-19T09:59:41;99588.13;;;31.04;nan
76205;BME280;64986;55.672;37.628;2023-06-19T10:02:08;99584.31;;;32.06;nan
76205;BME280;64986;55.672;37.628;2023-06-19T10:04:54;99591.78;;;33.41;nan
76205;BME280;64986;55.672;37.628;2023-06-19T10:07:26;99589.72;;;34.27;nan
76205;BME280;64986;55.672;37.628;2023-06-19T10:10:07;99588.47;;;34.86;nan
76205;BME280;64986;55.672;37.628;2023-06-19T10:12:37;99579.63;;;35.69;nan
76205;BME280;64986;55.672;37.628;2023-06-19T10:17:35;99575.22;;;36.61;nan
76205;BME280;64986;55.672;37.628;2023-06-19T10:20:01;99572.09;;;37.07;nan
76205;BME280;64986;55.672;37.628;2023-06-19T10:22:32;99573.69;;;37.08;nan
76205;BME280;64986;55.672;37.628;2023-06-19T10:24:58;99572.34;;;36.47;nan
76205;BME280;64986;55.672;37.628;2023-06-19T10:27:24;99569.66;;;36.51;nan
76205;BME280;64986;55.672;37.628;2023-06-19T10:29:54;99567.19;;;36.42;nan
76205;BME280;64986;55.672;37.628;2023-06-19T10:32:23;99558.69;;;35.87;nan
76205;BME280;64986;55.672;37.628;2023-06-19T10:34:48;99551.41;;;36.32;nan
76205;BME280;64986;55.672;37.628;2023-06-19T10:37:15;99561.84;;;37.56;nan
76205;BME280;64986;55.672;37.628;2023-06-19T10:39:43;99555.31;;;37.78;nan
76205;BME280;64986;55.672;37.628;2023-06-19T10:42:09;99558.28;;;36.93;nan
76205;BME280;64986;55.672;37.628;2023-06-19T10:44:36;99559.56;;;37.68;nan
76205;BME280;64986;55.672;37.628;2023-06-19T10:47:05;99561.88;;;38.71;nan
76205;BME280;64986;55.672;37.628;2023-06-19T10:49:32;99562.94;;;39.66;nan
76205;BME280;64986;55.672;37.628;2023-06-19T10:51:59;99561.03;;;40.37;nan
76205;BME280;64986;55.672;37.628;2023-06-19T10:54:27;99559.00;;;41.00;nan
76205;BME280;64986;55.672;37.628;2023-06-19T10:56:52;99551.66;;;41.24;nan
76205;BME280;64986;55.672;37.628;2023-06-19T10:59:19;99557.34;;;41.10;nan
76205;BME280;64986;55.672;37.628;2023-06-19T11:01:46;99577.06;;;41.87;nan
76205;BME280;64986;55.672;37.628;2023-06-19T11:04:14;99547.25;;;42.29;nan
76205;BME280;64986;55.672;37.628;2023-06-19T11:06:41;99555.47;;;40.99;nan
76205;BME280;64986;55.672;37.628;2023-06-19T11:09:08;99534.72;;;39.02;nan
76205;BME280;64986;55.672;37.628;2023-06-19T11:11:46;99547.28;;;39.31;nan
76205;BME280;64986;55.672;37.628;2023-06-19T11:14:13;99545.31;;;40.30;nan
76205;BME280;64986;55.672;37.628;2023-06-19T11:16:41;99546.03;;;41.72;nan
76205;BME280;64986;55.672;37.628;2023-06-19T11:19:09;99540.66;;;42.46;nan
76205;BME280;64986;55.672;37.628;2023-06-19T11:21:36;99547.44;;;43.35;nan
76205;BME280;64986;55.672;37.628;2023-06-19T11:24:05;99538.78;;;43.53;nan
76205;BME280;64986;55.672;37.628;2023-06-19T11:26:38;99539.81;;;44.19;nan
76205;BME280;64986;55.672;37.628;2023-06-19T11:29:16;99527.91;;;45.00;nan
76205;BME280;64986;55.672;37.628;2023-06-19T11:31:44;99526.47;;;43.74;nan
76205;BME280;64986;55.672;37.628;2023-06-19T11:34:10;99522.56;;;42.88;nan
76205;BME280;64986;55.672;37.628;2023-06-19T11:36:39;99517.47;;;42.36;nan
76205;BME280;64986;55.672;37.628;2023-06-19T11:39:10;99515.94;;;43.06;nan
76205;BME280;64986;55.672;37.628;2023-06-19T11:41:36;99510.78;;;43.28;nan
76205;BME280;64986;55.672;37.628;2023-06-19T11:44:06;99514.53;;;44.13;nan
76205;BME280;64986;55.672;37.628;2023-06-19T11:46:33;99511.97;;;44.22;nan
76205;BME280;64986;55.672;37.628;2023-06-19T11:49:16;99520.09;;;45.53;nan
76205;BME280;64986;55.672;37.628;2023-06-19T11:51:44;99506.94;;;44.66;nan
76205;BME280;64986;55.672;37.628;2023-06-19T11:54:11;99511.56;;;45.02;nan
76205;BME280;64986;55.672;37.628;2023-06-19T11:56:38;99519.00;;;45.50;nan
76205;BME280;64986;55.672;37.628;2023-06-19T11:59:04;99509.97;;;45.17;nan
76205;BME280;64986;55.672;37.628;2023-06-19T12:01:33;99508.00;;;45.59;nan
76205;BME280;64986;55.672;37.628;2023-06-19T12:04:00;99497.34;;;45.29;nan
76205;BME280;64986;55.672;37.628;2023-06-19T12:06:26;99495.81;;;44.66;nan
76205;BME280;64986;55.672;37.628;2023-06-19T12:08:52;99512.31;;;44.24;nan
76205;BME280;64986;55.672;37.628;2023-06-19T12:11:18;99502.16;;;44.18;nan
76205;BME280;64986;55.672;37.628;2023-06-19T12:13:43;99503.03;;;43.79;nan
76205;BME280;64986;55.672;37.628;2023-06-19T12:16:13;99503.25;;;42.61;nan
76205;BME280;64986;55.672;37.628;2023-06-19T12:18:38;99487.63;;;41.67;nan
76205;BME280;64986;55.672;37.628;2023-06-19T12:21:04;99484.19;;;41.90;nan
76205;BME280;64986;55.672;37.628;2023-06-19T12:23:29;99487.72;;;42.17;nan
76205;BME280;64986;55.672;37.628;2023-06-19T12:25:55;99496.13;;;43.07;nan
76205;BME280;64986;55.672;37.628;2023-06-19T12:28:21;99520.81;;;43.81;nan
76205;BME280;64986;55.672;37.628;2023-06-19T12:30:52;99488.81;;;45.49;nan
76205;BME280;64986;55.672;37.628;2023-06-19T12:33:19;99483.06;;;46.32;nan
76205;BME280;64986;55.672;37.628;2023-06-19T12:35:49;99479.59;;;45.64;nan
76205;BME280;64986;55.672;37.628;2023-06-19T12:38:14;99463.66;;;44.81;nan
76205;BME280;64986;55.672;37.628;2023-06-19T12:40:41;99470.03;;;45.11;nan
76205;BME280;64986;55.672;37.628;2023-06-19T12:43:07;99464.50;;;46.29;nan
76205;BME280;64986;55.672;37.628;2023-06-19T12:45:33;99459.91;;;47.05;nan
76205;BME280;64986;55.672;37.628;2023-06-19T12:47:59;99457.91;;;46.70;nan
76205;BME280;64986;55.672;37.628;2023-06-19T12:50:24;99459.47;;;46.50;nan
76205;BME280;64986;55.672;37.628;2023-06-19T12:52:50;99463.28;;;45.12;nan
76205;BME280;64986;55.672;37.628;2023-06-19T12:55:16;99452.78;;;44.42;nan
76205;BME280;64986;55.672;37.628;2023-06-19T12:57:41;99444.41;;;44.29;nan
76205;BME280;64986;55.672;37.628;2023-06-19T13:00:11;99447.91;;;44.13;nan
76205;BME280;64986;55.672;37.628;2023-06-19T13:02:38;99435.59;;;45.21;nan
76205;BME280;64986;55.672;37.628;2023-06-19T13:05:05;99440.78;;;45.35;nan
76205;BME280;64986;55.672;37.628;2023-06-19T13:07:31;99436.25;;;46.53;nan
76205;BME280;64986;55.672;37.628;2023-06-19T13:09:56;99439.84;;;47.63;nan